KHNB

Huntingburg Airport

Huntingburg, Indiana, USA
METAR KHNB 221356Z AUTO 20007KT 10SM CLR 07/02 A3026 RMK AO2 SLP249 T00670022
Observed Flight Rules
Oct-22 @ 13:56 UTC (48 minutes ago) Visual Flight Rules
Wind Visibility Clouds
200° at 7 knots 10 miles
  • Clear skies
Temperatures Readings
Current 7°C / 45°F
Dewpoint 2°C / 36°F
Humidity 71%
Altimeter 30.26" Hg
Pressure 1024.9 hPa
Elevation 161
METAR KHNB 221356Z AUTO 20007KT 10SM CLR 07/02 A3026 RMK AO2 SLP249 T00670022
Observed Flight Rules
Oct-22 @ 13:56 UTC
(48 minutes ago)
VFR
Wind Visibility
200° at 7 knots 10 miles
Clouds
  • Clear skies
Temperature Dewpoint
7°C / 45°F 2°C / 36°F
Humidity Altimeter Pressure
71% 30.26" Hg 1024.9 hPa